Altus, Oklahoma
Current Conditions -  °F | °C
As of 4:58 PM on Saturday 25 Oct 2014 (Local Time) from KLTS Reporting Station
Clear Clear  
Wind Chill: 33°   Ceiling: Unl
Heat Index: 33°   Visibility: 10mi
Dew Point: 12°   Wind: 18mph
Humidity: 27%   Direction: 180°S
Pressure: 30.03"   Gusts: 24mph
Location:  34.64°N, 99.33°W
Report Text: KLTS 252158Z AUTO 18016G21KT 10SM CLR 33/12 A3003 RMK AO2 SLP156 T03320116 $
Loading
Personal Weather Stations






























Interactive Weather Map
Tropical Storm Tracking
New forecast layout! Learn more

10-Day Weather Forecast

Advertisements
Track Severe Weather on mobile